Kajang, Malaysia
Current Conditions -  °F | °C
As of 7:00 PM on Wednesday 26 Nov 2014 (Local Time) from WMSA Reporting Station
Broken Clouds Broken Clouds  
Wind Chill: 81°   Ceiling: 14000
Heat Index: 87°   Visibility: 4mi
Dew Point: 77°   Wind: 6mph
Humidity: 89%   Direction: 350°N
Pressure: 29.77"   Gusts: NA
Location:  3°N, 101.8°E
Report Text: WMSA 261100Z 35005KT 300V030 7000 FEW020 BKN140 27/25 Q1008
Loading
Personal Weather Stations






























Interactive Weather Map New forecast layout! Learn more

10-Day Weather Forecast

Advertisements
Track Severe Weather on mobile